Time;durP1;ratioP1;P1;durP2;ratioP2;P2;SDS_P1;SDS_P2;PMS_P1;PMS_P2;Temp;Humidity;BMP_temperature;BMP_pressure;BME280_temperature;BME280_humidity;BME280_pressure;Samples;Min_cycle;Max_cycle;Signal;HPM_P1;HPM_P2
2021/06/30 00:00:58;;;;;;;6.40;2.38;;;16.50;96.40;;;;;;6247923;22;20235;-76
2021/06/30 00:03:26;;;;;;;5.40;2.60;;;16.50;96.60;;;;;;6278055;22;20046;-77
2021/06/30 00:05:53;;;;;;;6.38;2.28;;;16.50;96.50;;;;;;6278282;22;20085;-76
2021/06/30 00:08:20;;;;;;;5.85;2.40;;;16.50;96.30;;;;;;6278282;22;20299;-76
2021/06/30 00:10:51;;;;;;;6.82;2.45;;;16.50;96.50;;;;;;6277878;22;20019;-76
2021/06/30 00:13:18;;;;;;;4.88;2.30;;;16.40;96.00;;;;;;6278314;22;20023;-76
2021/06/30 00:15:45;;;;;;;3.40;2.03;;;16.40;96.20;;;;;;6279211;22;20024;-76
2021/06/30 00:18:14;;;;;;;6.18;2.42;;;16.40;96.30;;;;;;6278051;22;20312;-76
2021/06/30 00:20:42;;;;;;;4.55;2.60;;;16.40;96.00;;;;;;6279469;22;20012;-75
2021/06/30 00:23:09;;;;;;;7.07;2.55;;;16.40;96.20;;;;;;6278450;22;20022;-75
2021/06/30 00:25:37;;;;;;;4.70;2.22;;;16.40;95.80;;;;;;6281395;22;20023;-75
2021/06/30 00:28:06;;;;;;;4.38;2.40;;;16.40;96.00;;;;;;6252323;22;20231;-75
2021/06/30 00:30:33;;;;;;;5.27;2.63;;;16.40;96.20;;;;;;6277839;22;20023;-76
2021/06/30 00:33:00;;;;;;;7.22;2.60;;;16.50;96.20;;;;;;6280611;22;20023;-76
2021/06/30 00:35:28;;;;;;;5.32;2.55;;;16.50;96.10;;;;;;6280011;22;20196;-76
2021/06/30 00:37:55;;;;;;;5.95;2.53;;;16.50;95.80;;;;;;6278822;22;20024;-75
2021/06/30 00:40:22;;;;;;;5.95;2.60;;;16.40;95.50;;;;;;6277227;22;20027;-75
2021/06/30 00:42:50;;;;;;;6.70;2.35;;;16.50;95.80;;;;;;6252742;22;20393;-76
2021/06/30 00:45:20;;;;;;;6.13;2.63;;;16.40;95.80;;;;;;6280331;22;20023;-75
2021/06/30 00:47:48;;;;;;;5.78;2.33;;;16.40;96.00;;;;;;6278178;22;20039;-75
2021/06/30 00:50:15;;;;;;;4.82;2.30;;;16.30;95.20;;;;;;6278809;22;20026;-75
2021/06/30 00:52:43;;;;;;;5.50;2.50;;;16.40;95.40;;;;;;6280120;22;20022;-75
2021/06/30 00:55:11;;;;;;;4.63;2.63;;;16.40;95.70;;;;;;6283340;22;20345;-75
2021/06/30 00:57:39;;;;;;;5.68;2.45;;;16.40;95.20;;;;;;6253539;22;20024;-75
2021/06/30 01:00:08;;;;;;;7.35;2.90;;;16.40;95.80;;;;;;6277431;22;20026;-75
2021/06/30 01:02:37;;;;;;;5.30;2.75;;;16.30;95.20;;;;;;6279657;22;20072;-75
2021/06/30 01:05:06;;;;;;;6.35;3.40;;;16.30;95.00;;;;;;6281020;22;20258;-75
2021/06/30 01:07:33;;;;;;;7.43;2.72;;;16.30;95.20;;;;;;6278919;22;20267;-75
2021/06/30 01:10:00;;;;;;;5.35;3.10;;;16.30;95.20;;;;;;6280742;22;20295;-75
2021/06/30 01:12:30;;;;;;;5.30;3.50;;;16.30;95.00;;;;;;6280566;22;20015;-75
2021/06/30 01:15:02;;;;;;;8.23;2.60;;;16.10;93.00;;;;;;6278977;22;20341;-75
2021/06/30 01:17:29;;;;;;;7.38;3.08;;;16.20;94.90;;;;;;6253467;22;20027;-75
2021/06/30 01:19:58;;;;;;;6.50;3.17;;;16.20;93.60;;;;;;6280866;22;20027;-75
2021/06/30 01:22:26;;;;;;;6.35;2.80;;;16.20;94.90;;;;;;6280797;22;20024;-75
2021/06/30 01:24:55;;;;;;;4.38;2.65;;;16.20;95.10;;;;;;6280710;22;20023;-75
2021/06/30 01:27:29;;;;;;;4.70;2.93;;;16.10;93.20;;;;;;6279735;22;20039;-74
2021/06/30 01:29:56;;;;;;;6.07;2.92;;;16.10;94.90;;;;;;6280858;22;20874;-75
2021/06/30 01:32:24;;;;;;;4.38;2.97;;;16.10;94.20;;;;;;6280216;22;20023;-75
2021/06/30 01:34:52;;;;;;;5.43;2.60;;;16.10;93.80;;;;;;6276266;22;20015;-75
2021/06/30 01:37:19;;;;;;;6.40;2.67;;;16.20;94.50;;;;;;6280829;22;20094;-75
2021/06/30 01:39:47;;;;;;;4.78;2.75;;;16.20;94.00;;;;;;6279571;22;20019;-75
2021/06/30 01:42:16;;;;;;;5.85;2.55;;;16.20;94.70;;;;;;6281525;22;20043;-75
2021/06/30 01:44:43;;;;;;;6.85;2.47;;;16.20;92.90;;;;;;6278649;22;20284;-75
2021/06/30 01:47:11;;;;;;;7.47;2.80;;;16.20;94.50;;;;;;6279242;22;20024;-75
2021/06/30 01:49:40;;;;;;;10.10;2.70;;;16.20;94.00;;;;;;6277029;22;20031;-74
2021/06/30 01:52:08;;;;;;;11.05;2.53;;;16.20;93.70;;;;;;6279703;22;20066;-75
2021/06/30 01:54:35;;;;;;;4.75;2.67;;;16.10;93.60;;;;;;6279046;22;20030;-75
2021/06/30 01:57:02;;;;;;;5.35;2.80;;;16.30;94.40;;;;;;6279443;22;20050;-74
2021/06/30 01:59:37;;;;;;;7.15;2.75;;;16.30;94.00;;;;;;6279716;22;20027;-74
2021/06/30 02:02:05;;;;;;;4.38;2.55;;;16.30;94.10;;;;;;6276079;22;20062;-74
2021/06/30 02:04:32;;;;;;;9.27;2.35;;;16.20;94.00;;;;;;6282141;22;20015;-74
2021/06/30 02:06:59;;;;;;;5.07;2.20;;;16.20;94.20;;;;;;6281378;22;20050;-74
2021/06/30 02:09:26;;;;;;;5.28;2.33;;;16.20;94.30;;;;;;6280851;22;20020;-74
2021/06/30 02:11:53;;;;;;;6.70;3.25;;;16.10;93.10;;;;;;6281466;22;20260;-74
2021/06/30 02:14:21;;;;;;;5.93;2.38;;;16.00;93.60;;;;;;6282051;22;20323;-74
2021/06/30 02:16:49;;;;;;;6.75;2.95;;;16.10;94.10;;;;;;6279879;22;20034;-74
2021/06/30 02:19:16;;;;;;;4.97;2.30;;;16.20;94.30;;;;;;6254974;22;20045;-74
2021/06/30 02:21:44;;;;;;;4.75;2.60;;;16.10;93.50;;;;;;6281533;22;20040;-74
2021/06/30 02:24:11;;;;;;;5.13;2.75;;;16.10;93.10;;;;;;6281621;22;20046;-75
2021/06/30 02:26:39;;;;;;;5.18;2.25;;;16.20;93.80;;;;;;6280086;22;20031;-75
2021/06/30 02:29:06;;;;;;;8.10;2.80;;;16.10;93.30;;;;;;6281417;22;20023;-74
2021/06/30 02:31:36;;;;;;;5.32;3.10;;;16.20;93.90;;;;;;6253698;22;20028;-74
2021/06/30 02:34:05;;;;;;;9.18;2.85;;;16.20;93.60;;;;;;6280693;22;20256;-74
2021/06/30 02:36:32;;;;;;;5.55;3.28;;;16.20;93.60;;;;;;6280187;22;20016;-74
2021/06/30 02:38:59;;;;;;;6.18;3.08;;;16.20;94.10;;;;;;6256869;22;20019;-74
2021/06/30 02:41:26;;;;;;;5.05;2.67;;;16.30;94.00;;;;;;6282652;22;20050;-75
2021/06/30 02:43:53;;;;;;;4.10;1.95;;;16.20;93.00;;;;;;6285548;22;20023;-75
2021/06/30 02:46:21;;;;;;;5.22;2.78;;;16.20;93.70;;;;;;6283534;22;20020;-75
2021/06/30 02:48:48;;;;;;;8.20;2.83;;;16.20;93.80;;;;;;6253521;22;20027;-74
2021/06/30 02:51:16;;;;;;;4.82;2.47;;;16.20;93.50;;;;;;6278903;22;20026;-75
2021/06/30 02:53:44;;;;;;;4.78;2.40;;;16.20;93.90;;;;;;6279139;22;20334;-74
2021/06/30 02:56:11;;;;;;;6.85;2.75;;;16.30;93.50;;;;;;6281559;22;20024;-75
2021/06/30 02:58:38;;;;;;;7.72;2.70;;;16.30;92.60;;;;;;6281645;22;20019;-75
2021/06/30 03:01:08;;;;;;;3.80;2.22;;;16.20;92.80;;;;;;6273243;22;20019;-74
2021/06/30 03:03:35;;;;;;;8.38;2.58;;;16.10;93.00;;;;;;6279322;22;20030;-75
2021/06/30 03:06:02;;;;;;;6.65;3.05;;;16.20;91.90;;;;;;6279986;22;20023;-74
2021/06/30 03:08:32;;;;;;;7.55;3.10;;;16.20;92.90;;;;;;6279550;22;20106;-76
2021/06/30 03:11:00;;;;;;;7.40;2.80;;;16.30;93.50;;;;;;6278280;22;20019;-75
2021/06/30 03:13:27;;;;;;;5.00;2.35;;;16.30;93.20;;;;;;6283397;22;20075;-75
2021/06/30 03:15:54;;;;;;;4.75;2.60;;;16.30;92.40;;;;;;6282213;22;20043;-75
2021/06/30 03:18:21;;;;;;;5.80;2.80;;;16.30;92.70;;;;;;6281715;22;20024;-75
2021/06/30 03:20:49;;;;;;;5.60;2.97;;;16.20;92.20;;;;;;6281634;22;20258;-75
2021/06/30 03:23:16;;;;;;;7.70;2.97;;;16.20;92.60;;;;;;6281215;22;20047;-75
2021/06/30 03:25:44;;;;;;;6.35;2.58;;;16.20;92.90;;;;;;6281259;22;20358;-75
2021/06/30 03:28:12;;;;;;;4.45;2.53;;;16.20;93.00;;;;;;6277947;22;20030;-75
2021/06/30 03:30:41;;;;;;;10.27;2.78;;;16.30;91.80;;;;;;6273430;22;20020;-75
2021/06/30 03:33:08;;;;;;;4.22;2.22;;;16.30;93.10;;;;;;6279098;22;20024;-75
2021/06/30 03:35:35;;;;;;;5.75;2.78;;;16.30;92.60;;;;;;6277172;22;20020;-75
2021/06/30 03:38:02;;;;;;;6.43;2.58;;;16.20;92.20;;;;;;6277240;22;20047;-75
2021/06/30 03:40:31;;;;;;;4.55;2.70;;;16.20;92.10;;;;;;6276451;22;20053;-75
2021/06/30 03:42:59;;;;;;;6.82;2.80;;;16.10;92.10;;;;;;6248118;22;20317;-75
2021/06/30 03:45:26;;;;;;;7.22;2.90;;;16.20;92.90;;;;;;6276065;22;20023;-75
2021/06/30 03:47:54;;;;;;;8.25;3.55;;;16.20;92.70;;;;;;6247192;22;20070;-75
2021/06/30 03:50:21;;;;;;;6.35;2.90;;;16.10;91.90;;;;;;6276003;22;20020;-75
2021/06/30 03:52:48;;;;;;;7.07;2.70;;;16.10;92.50;;;;;;6276307;22;20566;-75
2021/06/30 03:55:15;;;;;;;6.85;2.33;;;16.00;92.30;;;;;;6275765;22;20046;-75
2021/06/30 03:57:42;;;;;;;7.72;2.40;;;16.10;91.50;;;;;;6250550;22;20019;-76
2021/06/30 04:00:12;;;;;;;4.75;2.45;;;16.10;92.40;;;;;;6271925;22;20011;-75
2021/06/30 04:02:40;;;;;;;6.32;2.65;;;16.10;91.20;;;;;;6277000;22;20035;-76
2021/06/30 04:05:08;;;;;;;6.82;2.80;;;16.20;91.50;;;;;;6276887;22;20024;-76
2021/06/30 04:07:35;;;;;;;7.22;3.30;;;16.30;91.30;;;;;;6272992;22;20086;-76
2021/06/30 04:10:03;;;;;;;5.43;2.38;;;16.30;90.60;;;;;;6276816;22;20019;-76
2021/06/30 04:12:31;;;;;;;8.43;2.50;;;16.30;90.50;;;;;;6249509;22;20027;-76
2021/06/30 04:14:59;;;;;;;4.15;2.45;;;16.20;90.30;;;;;;6276528;22;20034;-76
2021/06/30 04:17:27;;;;;;;5.55;2.67;;;16.30;90.90;;;;;;6275992;22;20271;-76
2021/06/30 04:19:55;;;;;;;3.80;2.17;;;16.50;90.40;;;;;;6274066;22;20026;-76
2021/06/30 04:22:22;;;;;;;4.97;2.25;;;16.60;90.30;;;;;;6277209;22;20020;-76
2021/06/30 04:24:49;;;;;;;5.10;2.35;;;16.50;89.60;;;;;;6276339;22;20246;-75
2021/06/30 04:27:16;;;;;;;3.47;2.00;;;16.60;90.00;;;;;;6275321;22;20289;-76
2021/06/30 04:29:43;;;;;;;4.43;2.15;;;16.60;88.50;;;;;;6277500;22;20050;-75
2021/06/30 04:32:10;;;;;;;5.45;2.05;;;16.60;88.70;;;;;;6278551;22;20051;-76
2021/06/30 04:34:39;;;;;;;4.22;2.17;;;16.70;88.40;;;;;;6276789;22;20073;-75
2021/06/30 04:37:06;;;;;;;5.78;2.50;;;16.60;88.00;;;;;;6278333;22;20023;-75
2021/06/30 04:39:34;;;;;;;6.35;2.33;;;16.60;88.40;;;;;;6276060;22;20283;-75
2021/06/30 04:42:01;;;;;;;3.95;2.05;;;16.60;88.80;;;;;;6279519;22;20353;-75
2021/06/30 04:44:29;;;;;;;4.28;1.95;;;16.60;87.80;;;;;;6275299;22;20023;-76
2021/06/30 04:46:57;;;;;;;5.43;2.17;;;16.70;87.60;;;;;;6278698;22;20022;-76
2021/06/30 04:49:24;;;;;;;5.05;1.92;;;16.70;87.60;;;;;;6251694;22;20215;-76
2021/06/30 04:51:52;;;;;;;3.65;1.80;;;16.80;88.00;;;;;;6278191;22;20180;-76
2021/06/30 04:54:22;;;;;;;5.47;2.13;;;16.80;86.80;;;;;;6278087;22;20019;-76
2021/06/30 04:56:49;;;;;;;9.70;2.10;;;16.70;87.80;;;;;;6278015;22;20070;-76
2021/06/30 04:59:17;;;;;;;6.13;1.85;;;16.70;87.30;;;;;;6279069;22;20023;-77
2021/06/30 05:01:44;;;;;;;5.45;2.20;;;16.70;87.50;;;;;;6272614;22;20027;-77
2021/06/30 05:04:12;;;;;;;4.88;1.95;;;16.90;87.20;;;;;;6276643;22;20031;-76
2021/06/30 05:06:39;;;;;;;4.72;1.88;;;16.90;86.70;;;;;;6277804;22;20023;-76
2021/06/30 05:09:07;;;;;;;4.57;2.00;;;16.90;87.00;;;;;;6277213;22;20043;-76
2021/06/30 05:11:36;;;;;;;5.75;2.10;;;16.90;86.80;;;;;;6251194;22;20016;-76
2021/06/30 05:14:03;;;;;;;5.68;1.98;;;16.90;86.40;;;;;;6276755;22;20050;-76
2021/06/30 05:16:31;;;;;;;7.47;1.73;;;16.70;87.60;;;;;;6277810;22;20115;-77
2021/06/30 05:18:58;;;;;;;3.22;2.00;;;16.80;87.50;;;;;;6279815;22;20031;-76
2021/06/30 05:21:25;;;;;;;6.15;1.83;;;16.80;87.20;;;;;;6252723;22;20024;-76
2021/06/30 05:23:53;;;;;;;5.82;1.73;;;16.80;87.70;;;;;;6279982;22;20082;-77
2021/06/30 05:26:21;;;;;;;5.88;1.77;;;16.90;87.80;;;;;;6276253;22;20026;-76
2021/06/30 05:28:49;;;;;;;3.65;1.70;;;16.90;87.10;;;;;;6276113;22;20051;-76
2021/06/30 05:31:16;;;;;;;3.97;1.50;;;17.00;86.10;;;;;;6248196;22;20030;-77
2021/06/30 05:33:43;;;;;;;4.63;1.60;;;17.10;86.60;;;;;;6276291;22;20024;-76
2021/06/30 05:36:10;;;;;;;4.57;1.75;;;17.10;85.70;;;;;;6280529;22;20015;-77
2021/06/30 05:38:37;;;;;;;2.75;1.65;;;17.10;85.30;;;;;;6279629;22;20404;-76
2021/06/30 05:41:05;;;;;;;5.32;1.70;;;17.10;85.60;;;;;;6276066;22;20035;-77
2021/06/30 05:43:36;;;;;;;7.47;1.80;;;17.20;85.30;;;;;;6280561;22;20020;-77
2021/06/30 05:46:04;;;;;;;4.55;1.70;;;17.30;84.80;;;;;;6280003;22;20058;-76
2021/06/30 05:48:31;;;;;;;5.47;1.88;;;17.30;84.40;;;;;;6275988;22;20016;-77
2021/06/30 05:50:59;;;;;;;3.33;1.73;;;17.30;84.20;;;;;;6280815;22;20036;-76
2021/06/30 05:53:26;;;;;;;2.80;1.88;;;17.20;84.10;;;;;;6251666;22;20044;-77
2021/06/30 05:55:53;;;;;;;2.33;1.13;;;17.20;84.40;;;;;;6251528;22;20050;-77
2021/06/30 05:58:20;;;;;;;5.97;1.80;;;17.30;84.40;;;;;;6276351;22;20062;-77
2021/06/30 06:00:49;;;;;;;5.10;1.70;;;17.20;84.30;;;;;;6271591;22;20295;-77
2021/06/30 06:03:17;;;;;;;4.38;1.77;;;17.10;84.10;;;;;;6249626;22;20047;-76
2021/06/30 06:05:44;;;;;;;2.30;1.40;;;17.20;84.30;;;;;;6278790;22;20023;-77
2021/06/30 06:08:12;;;;;;;3.85;1.70;;;17.30;83.70;;;;;;6278425;22;20023;-77
2021/06/30 06:10:40;;;;;;;3.95;1.85;;;17.30;83.40;;;;;;6276395;22;20020;-77
2021/06/30 06:13:07;;;;;;;6.53;1.70;;;17.40;83.60;;;;;;6275822;22;20290;-77
2021/06/30 06:15:35;;;;;;;4.85;2.40;;;17.50;83.60;;;;;;6278599;22;20287;-77
2021/06/30 06:18:06;;;;;;;4.10;1.70;;;17.60;83.90;;;;;;6276430;22;20365;-77
2021/06/30 06:20:34;;;;;;;5.53;2.13;;;17.60;82.80;;;;;;6277891;22;20019;-77
2021/06/30 06:23:01;;;;;;;5.13;1.85;;;17.70;82.80;;;;;;6281952;22;20261;-77
2021/06/30 06:25:29;;;;;;;4.13;1.60;;;17.60;81.90;;;;;;6279692;22;20043;-77
2021/06/30 06:27:56;;;;;;;3.33;1.67;;;17.40;81.80;;;;;;6282121;22;20030;-77
2021/06/30 06:30:27;;;;;;;5.72;1.70;;;17.40;82.60;;;;;;6281396;22;20016;-77
2021/06/30 06:32:54;;;;;;;4.25;2.00;;;17.40;82.30;;;;;;6252048;22;20599;-77
2021/06/30 06:35:23;;;;;;;3.10;1.83;;;17.40;82.60;;;;;;6283466;22;20083;-77
2021/06/30 06:37:50;;;;;;;5.22;2.00;;;17.60;81.30;;;;;;6283000;22;20022;-77
2021/06/30 06:40:17;;;;;;;7.50;2.30;;;17.70;81.20;;;;;;6278508;22;20024;-77
2021/06/30 06:42:45;;;;;;;3.60;1.90;;;17.80;80.20;;;;;;6254740;22;20035;-77
2021/06/30 06:45:12;;;;;;;3.78;1.58;;;18.00;79.90;;;;;;6277559;22;20027;-77
2021/06/30 06:47:39;;;;;;;7.20;1.70;;;18.00;80.00;;;;;;6279300;22;20030;-77
2021/06/30 06:50:08;;;;;;;6.47;1.85;;;18.10;78.70;;;;;;6279619;22;20023;-77
2021/06/30 06:52:36;;;;;;;2.40;1.45;;;18.10;78.50;;;;;;6279661;22;20011;-77
2021/06/30 06:55:09;;;;;;;3.53;1.80;;;18.00;79.40;;;;;;6281189;22;20058;-77
2021/06/30 06:57:37;;;;;;;3.70;1.60;;;18.00;79.50;;;;;;6253302;22;20350;-77
2021/06/30 07:00:05;;;;;;;3.00;1.50;;;18.10;79.40;;;;;;6280047;22;20024;-77
2021/06/30 07:02:33;;;;;;;8.55;2.10;;;18.10;79.40;;;;;;6254110;22;20020;-77
2021/06/30 07:05:00;;;;;;;3.80;2.08;;;17.70;80.40;;;;;;6281898;22;20023;-76
2021/06/30 07:07:41;;;;;;;4.88;2.63;;;17.60;80.90;;;;;;6254815;22;20235;-75
2021/06/30 07:10:09;;;;;;;5.90;1.83;;;17.70;81.30;;;;;;6250200;22;20027;-77
2021/06/30 07:12:36;;;;;;;3.13;1.75;;;17.70;81.50;;;;;;6279867;22;20180;-76
2021/06/30 07:15:04;;;;;;;5.47;1.77;;;17.60;80.60;;;;;;6281957;22;20016;-76
2021/06/30 07:17:34;;;;;;;4.55;2.13;;;17.80;80.70;;;;;;6281870;22;20027;-77
2021/06/30 07:20:02;;;;;;;4.90;2.38;;;17.80;79.80;;;;;;6280275;22;20023;-76
2021/06/30 07:22:29;;;;;;;4.88;1.88;;;17.70;80.00;;;;;;6278668;22;20082;-76
2021/06/30 07:24:58;;;;;;;6.70;2.30;;;17.60;80.70;;;;;;6276898;22;20331;-76
2021/06/30 07:27:25;;;;;;;7.72;2.08;;;17.80;79.40;;;;;;6277872;22;20023;-77
2021/06/30 07:29:53;;;;;;;8.25;2.22;;;18.00;79.70;;;;;;6275504;22;20381;-79
2021/06/30 07:32:21;;;;;;;4.80;1.90;;;18.10;78.20;;;;;;6279326;22;20192;-76
2021/06/30 07:34:48;;;;;;;3.95;1.95;;;18.20;77.70;;;;;;6251364;22;20248;-77
2021/06/30 07:37:16;;;;;;;6.40;1.90;;;18.50;76.50;;;;;;6276877;22;20024;-77
2021/06/30 07:39:43;;;;;;;5.03;2.05;;;18.80;75.50;;;;;;6276941;22;20023;-77
2021/06/30 07:42:11;;;;;;;9.05;2.75;;;18.90;75.20;;;;;;6275708;22;20076;-76
2021/06/30 07:44:39;;;;;;;4.38;2.10;;;18.60;74.90;;;;;;6277576;22;20032;-77
2021/06/30 07:47:10;;;;;;;5.68;2.33;;;18.20;75.50;;;;;;6249940;22;20027;-77
2021/06/30 07:49:37;;;;;;;4.75;2.25;;;18.30;75.50;;;;;;6278621;22;20016;-76
2021/06/30 07:52:05;;;;;;;5.00;2.70;;;18.30;75.00;;;;;;6251903;22;20024;-76
2021/06/30 07:54:33;;;;;;;5.70;3.00;;;18.50;73.90;;;;;;6276063;22;20263;-76
2021/06/30 07:57:00;;;;;;;6.00;3.15;;;18.40;74.90;;;;;;6249474;22;20265;-76
2021/06/30 07:59:29;;;;;;;5.45;2.80;;;18.60;74.30;;;;;;6252947;22;20387;-76
2021/06/30 08:01:57;;;;;;;7.43;2.67;;;18.80;73.50;;;;;;6273296;22;20427;-77
2021/06/30 08:04:24;;;;;;;5.90;3.50;;;19.00;73.40;;;;;;6278461;22;20032;-77
2021/06/30 08:06:51;;;;;;;5.75;3.38;;;19.60;72.80;;;;;;6280161;22;20035;-77
2021/06/30 08:09:18;;;;;;;6.93;2.38;;;19.70;70.90;;;;;;6282918;22;20049;-77
2021/06/30 08:11:46;;;;;;;5.82;2.58;;;19.80;71.10;;;;;;6281952;22;20020;-77
2021/06/30 08:14:13;;;;;;;6.57;3.00;;;20.00;70.50;;;;;;6255225;22;20358;-77
2021/06/30 08:16:41;;;;;;;9.52;3.03;;;20.10;69.10;;;;;;6281543;22;20026;-77
2021/06/30 08:19:09;;;;;;;4.78;2.80;;;19.90;69.30;;;;;;6283665;22;20246;-77
2021/06/30 08:21:37;;;;;;;5.35;2.75;;;19.60;70.30;;;;;;6281030;22;20027;-77
2021/06/30 08:24:05;;;;;;;6.05;3.30;;;19.40;70.60;;;;;;6281933;22;20031;-77
2021/06/30 08:26:45;;;;;;;4.83;2.44;;;19.60;70.60;;;;;;4273993;22;10021371;-76
2021/06/30 08:29:12;;;;;;;6.13;2.83;;;19.70;69.30;;;;;;2803129;22;10001969;-77
2021/06/30 08:31:41;;;;;;;5.72;2.58;;;19.60;70.30;;;;;;6278041;22;20205;-77
2021/06/30 08:34:08;;;;;;;4.88;2.20;;;19.70;68.90;;;;;;6282455;22;20207;-77
2021/06/30 08:36:35;;;;;;;6.38;2.45;;;19.60;69.00;;;;;;6279315;22;20381;-77
2021/06/30 08:39:04;;;;;;;4.53;2.08;;;19.70;67.70;;;;;;6281645;22;20028;-76
2021/06/30 08:41:31;;;;;;;6.82;2.47;;;19.80;67.80;;;;;;6254504;22;20021;-76
2021/06/30 08:43:58;;;;;;;5.03;2.20;;;19.60;67.60;;;;;;6253515;22;20028;-77
2021/06/30 08:46:27;;;;;;;6.97;2.10;;;19.30;69.10;;;;;;6252893;22;20334;-76
2021/06/30 08:48:58;;;;;;;5.00;2.47;;;19.70;67.20;;;;;;6279843;22;20027;-77
2021/06/30 08:51:26;;;;;;;4.78;2.58;;;20.10;67.00;;;;;;6282490;22;20018;-77
2021/06/30 08:53:56;;;;;;;4.88;2.78;;;20.00;66.70;;;;;;6279707;22;20024;-77
2021/06/30 08:56:30;;;;;;;6.13;3.20;;;20.10;67.60;;;;;;6277482;22;20027;-77
2021/06/30 08:58:59;;;;;;;5.50;2.70;;;20.20;66.80;;;;;;6278932;22;20075;-77
2021/06/30 09:01:28;;;;;;;4.50;2.63;;;20.30;66.80;;;;;;6275563;22;20168;-77
2021/06/30 09:03:57;;;;;;;5.40;2.83;;;20.20;65.90;;;;;;6279056;22;20022;-76
2021/06/30 09:06:25;;;;;;;4.20;2.55;;;20.20;66.50;;;;;;6279670;22;20068;-76
2021/06/30 09:08:57;;;;;;;5.60;2.95;;;20.00;67.10;;;;;;6280745;22;20015;-77
2021/06/30 09:11:26;;;;;;;4.82;2.60;;;20.10;67.40;;;;;;6252003;22;20082;-77
2021/06/30 09:14:15;;;;;;;5.03;2.73;;;20.20;67.10;;;;;;6275934;22;20025;-76
2021/06/30 09:19:55;;;;;;;3.78;1.92;;;19.80;67.60;;;;;;6269837;22;20066;-77
2021/06/30 09:22:24;;;;;;;5.30;2.55;;;20.00;67.20;;;;;;6277054;22;20019;-76
2021/06/30 09:24:52;;;;;;;4.10;2.17;;;20.10;66.20;;;;;;6275919;22;20023;-77
2021/06/30 09:27:20;;;;;;;4.55;1.73;;;20.70;65.90;;;;;;6275961;22;20224;-76
2021/06/30 09:29:47;;;;;;;3.10;1.70;;;21.10;63.70;;;;;;6275061;22;20549;-76
2021/06/30 09:32:17;;;;;;;5.57;1.80;;;21.00;64.30;;;;;;6274613;22;20027;-78
2021/06/30 09:34:45;;;;;;;7.18;1.42;;;21.10;62.60;;;;;;6278829;22;20358;-77
2021/06/30 09:37:14;;;;;;;3.05;1.63;;;21.10;62.60;;;;;;6276903;22;20019;-76
2021/06/30 09:39:55;;;;;;;2.72;1.50;;;21.10;63.10;;;;;;6280274;22;20023;-77
2021/06/30 09:42:23;;;;;;;3.63;1.60;;;20.90;63.10;;;;;;6282060;22;20019;-77
2021/06/30 09:44:50;;;;;;;6.07;2.35;;;20.90;63.10;;;;;;6255346;22;20027;-77
2021/06/30 09:47:18;;;;;;;3.83;1.52;;;20.90;63.10;;;;;;6255910;22;20019;-77
2021/06/30 09:49:56;;;;;;;2.30;1.30;;;21.10;62.50;;;;;;6278690;22;20047;-77
2021/06/30 09:52:26;;;;;;;5.53;2.03;;;21.40;62.60;;;;;;6255255;22;20016;-77
2021/06/30 09:54:53;;;;;;;3.88;1.95;;;21.30;62.60;;;;;;6280380;22;20019;-77
2021/06/30 09:57:20;;;;;;;4.50;2.00;;;21.00;63.60;;;;;;6284338;22;20007;-77
2021/06/30 09:59:49;;;;;;;5.32;1.95;;;21.20;63.50;;;;;;6281773;22;20028;-77
2021/06/30 10:02:18;;;;;;;6.28;2.83;;;21.10;62.30;;;;;;6278510;22;20027;-77
2021/06/30 10:04:47;;;;;;;4.95;1.98;;;20.80;62.30;;;;;;6283252;22;20023;-77
2021/06/30 10:07:16;;;;;;;5.22;1.85;;;20.50;63.50;;;;;;6256412;22;20088;-77
2021/06/30 10:12:47;;;;;;;4.38;2.13;;;20.20;64.80;;;;;;5009805;28;20659;-78
2021/06/30 10:15:15;;;;;;;4.57;2.22;;;20.70;64.30;;;;;;5036593;28;20046;-76
2021/06/30 10:17:42;;;;;;;3.13;1.90;;;20.20;65.40;;;;;;5008412;28;20054;-77
2021/06/30 10:20:09;;;;;;;5.53;2.20;;;20.10;65.40;;;;;;5006739;28;20065;-75
2021/06/30 10:22:37;;;;;;;4.53;2.00;;;20.20;65.10;;;;;;5026330;28;20069;-75
2021/06/30 10:25:06;;;;;;;5.05;1.85;;;20.20;63.70;;;;;;5006618;28;20069;-78
2021/06/30 10:27:33;;;;;;;3.93;2.17;;;19.80;65.70;;;;;;5003542;28;22418;-75
2021/06/30 10:30:02;;;;;;;3.25;1.73;;;19.40;66.40;;;;;;5002062;28;20103;-79
2021/06/30 10:32:31;;;;;;;2.80;1.60;;;19.20;66.70;;;;;;4993199;28;20229;-77
2021/06/30 10:35:03;;;;;;;3.38;2.10;;;19.20;67.30;;;;;;5006315;28;20073;-77
2021/06/30 10:37:32;;;;;;;2.75;1.60;;;19.00;68.10;;;;;;5008348;28;20309;-76
2021/06/30 10:40:06;;;;;;;3.75;1.42;;;19.40;66.90;;;;;;5003099;28;20054;-76
2021/06/30 10:42:36;;;;;;;2.08;1.20;;;19.70;66.20;;;;;;5000443;28;20038;-76
2021/06/30 10:45:17;;;;;;;2.55;1.33;;;19.90;65.90;;;;;;5009110;28;20331;-76
2021/06/30 10:47:47;;;;;;;4.15;1.52;;;20.10;65.60;;;;;;5007236;28;20093;-78
2021/06/30 10:50:42;;;;;;;1.83;1.08;;;20.00;65.50;;;;;;5005758;28;20058;-77
2021/06/30 10:53:38;;;;;;;2.33;1.08;;;19.90;65.50;;;;;;5011099;28;20049;-77
2021/06/30 10:56:11;;;;;;;2.58;1.20;;;19.60;65.40;;;;;;5006962;28;20054;-75
2021/06/30 10:58:45;;;;;;;2.03;1.20;;;19.60;66.00;;;;;;5006451;28;20085;-77
2021/06/30 11:01:19;;;;;;;2.65;0.88;;;19.50;66.40;;;;;;5004846;28;20054;-77
2021/06/30 11:03:51;;;;;;;5.75;1.80;;;19.30;67.00;;;;;;5004308;28;20368;-75
2021/06/30 11:06:34;;;;;;;1.98;0.95;;;19.40;67.00;;;;;;5001156;28;20054;-77
2021/06/30 11:09:07;;;;;;;2.22;1.20;;;19.60;66.70;;;;;;5000278;28;20075;-77
2021/06/30 11:11:55;;;;;;;1.88;1.13;;;19.60;66.50;;;;;;5002956;28;20057;-77
2021/06/30 11:14:41;;;;;;;3.00;1.55;;;19.90;66.60;;;;;;5005381;28;20085;-77
2021/06/30 11:17:10;;;;;;;2.95;1.45;;;20.20;66.20;;;;;;5001618;28;20054;-76
2021/06/30 11:19:48;;;;;;;1.77;1.10;;;20.30;65.80;;;;;;5001960;28;20107;-78
2021/06/30 11:22:36;;;;;;;1.92;1.17;;;20.40;65.00;;;;;;4998457;28;20304;-77
2021/06/30 11:25:26;;;;;;;2.90;1.33;;;20.90;63.90;;;;;;4990300;28;20135;-77
2021/06/30 11:27:53;;;;;;;2.55;1.40;;;21.00;63.70;;;;;;4997811;28;20145;-76
2021/06/30 11:30:34;;;;;;;2.03;1.33;;;21.10;63.50;;;;;;4988518;28;20050;-77
2021/06/30 11:33:14;;;;;;;1.48;0.88;;;21.00;64.50;;;;;;4994606;28;20141;-78
2021/06/30 11:35:45;;;;;;;2.00;1.45;;;21.10;63.30;;;;;;4992779;28;20046;-78
2021/06/30 11:38:18;;;;;;;2.85;1.60;;;20.90;64.10;;;;;;4998851;28;20038;-77
2021/06/30 11:41:03;;;;;;;3.47;1.20;;;20.80;64.80;;;;;;4996835;28;20077;-77
2021/06/30 11:43:32;;;;;;;2.33;1.20;;;21.00;64.40;;;;;;5026525;28;20054;-77
2021/06/30 11:46:06;;;;;;;2.83;1.20;;;20.70;64.20;;;;;;4990809;28;21170;-78
2021/06/30 11:48:37;;;;;;;1.33;0.88;;;20.50;64.00;;;;;;4994409;28;20057;-78
2021/06/30 11:51:06;;;;;;;1.80;0.85;;;20.30;64.90;;;;;;4994564;28;20736;-75
2021/06/30 11:53:43;;;;;;;3.28;1.40;;;20.00;64.40;;;;;;4994661;28;20073;-77
2021/06/30 11:56:12;;;;;;;4.30;1.20;;;19.90;65.60;;;;;;4992968;28;20218;-77
2021/06/30 11:58:50;;;;;;;3.58;1.92;;;19.80;66.40;;;;;;5007327;28;20479;-76
2021/06/30 12:01:23;;;;;;;2.38;1.10;;;19.30;68.60;;;;;;4995221;28;20073;-77
2021/06/30 12:04:10;;;;;;;3.83;1.23;;;18.90;70.20;;;;;;4995379;28;20043;-77
2021/06/30 12:06:41;;;;;;;2.88;1.40;;;18.50;70.60;;;;;;4988798;28;20065;-78
2021/06/30 12:09:13;;;;;;;5.57;2.60;;;18.20;72.00;;;;;;4991842;28;20538;-77
2021/06/30 12:11:42;;;;;;;2.22;1.38;;;18.20;71.80;;;;;;4990355;28;20055;-77
2021/06/30 12:14:15;;;;;;;5.20;2.30;;;18.10;71.30;;;;;;4993306;28;20209;-77
2021/06/30 12:16:52;;;;;;;6.55;2.33;;;18.20;71.60;;;;;;5008841;28;20076;-76
2021/06/30 12:19:22;;;;;;;6.07;2.38;;;18.20;71.70;;;;;;4986439;28;20050;-76
2021/06/30 12:21:56;;;;;;;3.10;1.85;;;18.30;70.70;;;;;;4994922;28;20034;-76
2021/06/30 12:24:24;;;;;;;2.53;1.35;;;18.20;71.70;;;;;;4992996;28;20228;-77
2021/06/30 12:27:15;;;;;;;1.70;1.02;;;18.20;71.90;;;;;;5000136;28;20223;-77
2021/06/30 12:29:42;;;;;;;4.63;1.63;;;18.20;71.40;;;;;;4996676;28;20352;-76
2021/06/30 12:32:16;;;;;;;4.32;1.70;;;18.60;70.20;;;;;;4988431;28;20047;-76
2021/06/30 12:34:45;;;;;;;2.00;1.20;;;18.60;70.30;;;;;;4993476;28;20051;-77
2021/06/30 12:37:21;;;;;;;3.50;1.40;;;19.00;69.80;;;;;;4995619;28;20107;-77
2021/06/30 12:39:53;;;;;;;4.75;1.20;;;19.10;69.60;;;;;;4990761;28;20065;-79
2021/06/30 12:42:21;;;;;;;3.30;1.42;;;19.30;69.40;;;;;;4990946;28;20046;-76
2021/06/30 12:44:59;;;;;;;3.63;1.70;;;19.60;69.60;;;;;;4988812;28;20055;-78
2021/06/30 12:47:28;;;;;;;4.25;1.60;;;19.60;69.50;;;;;;4995880;28;20050;-77
2021/06/30 12:50:04;;;;;;;3.38;1.40;;;20.10;70.10;;;;;;4993349;28;20439;-77
2021/06/30 12:52:31;;;;;;;2.03;1.17;;;20.30;69.00;;;;;;4985771;28;20050;-76
2021/06/30 12:55:11;;;;;;;2.67;1.23;;;20.30;66.10;;;;;;4985008;28;20050;-77
2021/06/30 12:57:59;;;;;;;5.93;2.13;;;20.70;67.00;;;;;;4992965;28;20094;-77
2021/06/30 13:00:27;;;;;;;3.00;1.65;;;20.80;67.20;;;;;;4987081;28;20296;-77
2021/06/30 13:03:17;;;;;;;3.70;1.60;;;21.30;64.80;;;;;;4987250;28;20163;-78